Time;durP1;ratioP1;P1;durP2;ratioP2;P2;SDS_P1;SDS_P2;PMS_P1;PMS_P2;Temp;Humidity;BMP_temperature;BMP_pressure;BME280_temperature;BME280_humidity;BME280_pressure;Samples;Min_cycle;Max_cycle;Signal;HPM_P1;HPM_P2
2023/12/20 00:01:55;;;;;;;12.18;11.65;;;0.30;99.90;;;;;;5047727;28;20082;-79
2023/12/20 00:04:20;;;;;;;5.18;4.95;;;0.30;99.90;;;;;;5021397;28;20025;-75
2023/12/20 00:06:46;;;;;;;18.67;17.83;;;0.30;99.90;;;;;;5046355;28;20140;-75
2023/12/20 00:09:12;;;;;;;16.55;15.57;;;0.30;99.90;;;;;;5030445;23;20100;-75
2023/12/20 00:11:38;;;;;;;13.57;12.93;;;0.30;99.90;;;;;;5019315;28;20033;-75
2023/12/20 00:14:03;;;;;;;0.10;0.10;;;0.30;99.90;;;;;;5019607;28;20045;-75
2023/12/20 00:16:31;;;;;;;26.38;23.95;;;0.30;99.90;;;;;;5019436;28;20168;-75
2023/12/20 00:18:57;;;;;;;0.43;0.43;;;0.30;99.90;;;;;;5019030;28;20128;-75
2023/12/20 00:21:23;;;;;;;14.43;11.13;;;0.30;99.90;;;;;;5018424;28;20093;-74
2023/12/20 00:23:49;;;;;;;23.17;22.05;;;0.30;99.90;;;;;;5017677;28;20694;-75
2023/12/20 00:26:15;;;;;;;5.30;4.95;;;0.30;99.90;;;;;;5018854;28;20025;-74
2023/12/20 00:28:42;;;;;;;24.83;22.63;;;0.30;99.90;;;;;;5018872;28;20036;-75
2023/12/20 00:31:08;;;;;;;9.50;9.02;;;0.30;99.90;;;;;;5018945;28;20022;-75
2023/12/20 00:33:34;;;;;;;1.55;1.48;;;0.30;99.90;;;;;;5021159;28;20604;-76
2023/12/20 00:36:00;;;;;;;0.38;0.38;;;0.30;99.90;;;;;;5022499;28;20026;-75
2023/12/20 00:38:26;;;;;;;13.05;12.52;;;0.30;99.90;;;;;;5027467;28;20464;-75
2023/12/20 00:40:52;;;;;;;6.97;6.70;;;0.20;99.90;;;;;;5026064;28;20030;-76
2023/12/20 00:43:18;;;;;;;5.93;5.68;;;0.20;99.90;;;;;;5022552;28;20029;-75
2023/12/20 00:45:44;;;;;;;17.80;15.27;;;0.20;99.90;;;;;;5017231;28;20671;-75
2023/12/20 00:48:09;;;;;;;23.05;15.07;;;2.10;99.90;;;;;;5018529;28;20026;-75
2023/12/20 00:50:35;;;;;;;21.55;20.38;;;0.20;99.90;;;;;;5028631;28;20545;-75
2023/12/20 00:53:01;;;;;;;3.80;3.63;;;0.20;99.90;;;;;;5019558;28;20037;-76
2023/12/20 00:55:27;;;;;;;4.50;4.32;;;0.20;99.90;;;;;;5023455;28;20025;-75
2023/12/20 00:57:53;;;;;;;11.80;10.90;;;0.20;99.90;;;;;;5024467;28;20693;-79
2023/12/20 01:00:19;;;;;;;4.93;4.75;;;0.20;99.90;;;;;;5017977;28;20540;-80
2023/12/20 01:02:49;;;;;;;6.07;5.80;;;0.10;99.90;;;;;;5023328;28;20120;-75
2023/12/20 01:05:14;;;;;;;1.08;1.08;;;0.10;99.90;;;;;;5027860;28;20666;-75
2023/12/20 01:07:40;;;;;;;16.30;15.52;;;0.20;99.90;;;;;;5022506;28;20110;-75
2023/12/20 01:10:06;;;;;;;0.90;0.90;;;0.10;99.90;;;;;;5022668;28;20609;-75
2023/12/20 01:12:32;;;;;;;0.73;0.73;;;0.10;99.90;;;;;;5022490;28;20021;-75
2023/12/20 01:14:58;;;;;;;0.55;0.55;;;0.00;99.90;;;;;;5027630;28;20036;-77
2023/12/20 01:17:24;;;;;;;22.83;21.38;;;0.00;99.90;;;;;;5027611;28;20483;-75
2023/12/20 01:19:50;;;;;;;18.02;14.48;;;0.00;99.90;;;;;;5023415;28;20088;-74
2023/12/20 01:22:15;;;;;;;3.70;3.60;;;0.00;99.90;;;;;;5022564;28;20423;-74
2023/12/20 01:24:44;;;;;;;37.28;25.45;;;-0.10;99.90;;;;;;5029814;28;20523;-78
2023/12/20 01:27:10;;;;;;;40.67;36.65;;;-0.10;99.90;;;;;;5022019;28;20029;-75
2023/12/20 01:29:35;;;;;;;37.08;28.38;;;0.00;99.90;;;;;;5022228;28;20186;-74
2023/12/20 01:32:01;;;;;;;3.33;3.22;;;0.00;99.90;;;;;;5021828;28;20113;-74
2023/12/20 01:34:27;;;;;;;36.35;30.52;;;0.00;99.90;;;;;;5029842;28;20072;-75
2023/12/20 01:36:53;;;;;;;0.60;0.60;;;0.00;99.90;;;;;;5022379;28;20667;-75
2023/12/20 01:39:19;;;;;;;6.72;6.43;;;0.00;99.90;;;;;;5021878;28;20030;-75
2023/12/20 01:41:45;;;;;;;10.50;9.98;;;0.00;99.90;;;;;;5020994;28;20021;-75
2023/12/20 01:44:11;;;;;;;1.05;1.05;;;0.00;99.90;;;;;;5022125;28;20189;-74
2023/12/20 01:46:37;;;;;;;0.68;0.68;;;0.00;99.90;;;;;;5022814;28;20515;-74
2023/12/20 01:49:03;;;;;;;9.88;9.13;;;0.00;99.90;;;;;;5027808;28;20052;-75
2023/12/20 01:51:29;;;;;;;0.77;0.77;;;-0.10;99.90;;;;;;5022662;28;20050;-74
2023/12/20 01:53:57;;;;;;;12.48;11.50;;;-0.10;99.90;;;;;;5022607;28;20125;-75
2023/12/20 01:56:24;;;;;;;4.32;4.13;;;-0.20;99.90;;;;;;5021342;28;20529;-74
2023/12/20 01:58:50;;;;;;;4.53;4.35;;;-0.10;99.90;;;;;;5021982;28;20036;-75
2023/12/20 02:01:16;;;;;;;0.20;0.20;;;-0.20;99.90;;;;;;5024046;28;20029;-77
2023/12/20 02:03:45;;;;;;;2.33;2.33;;;-0.20;99.90;;;;;;5026550;28;20621;-75
2023/12/20 02:06:11;;;;;;;5.40;5.10;;;-0.20;99.90;;;;;;5021844;28;20186;-75
2023/12/20 02:08:37;;;;;;;0.53;0.53;;;-0.30;99.90;;;;;;5028104;28;20667;-75
2023/12/20 02:11:03;;;;;;;0.22;0.22;;;-0.30;99.90;;;;;;5022400;28;20050;-75
2023/12/20 02:13:30;;;;;;;0.50;0.50;;;-0.30;99.90;;;;;;5020759;28;20057;-75
2023/12/20 02:15:59;;;;;;;15.98;15.00;;;-0.30;99.90;;;;;;5030875;28;20032;-76
2023/12/20 02:18:25;;;;;;;0.20;0.20;;;-0.30;99.90;;;;;;5021468;28;20026;-75
2023/12/20 02:20:50;;;;;;;0.63;0.63;;;-0.20;99.90;;;;;;5021043;28;20195;-75
2023/12/20 02:23:16;;;;;;;1.20;1.20;;;-0.20;99.90;;;;;;5020702;28;20010;-74
2023/12/20 02:25:42;;;;;;;20.07;18.80;;;-0.10;99.90;;;;;;5020939;28;20026;-75
2023/12/20 02:28:08;;;;;;;4.15;3.95;;;-0.10;99.90;;;;;;5021647;28;20022;-75
2023/12/20 02:30:34;;;;;;;21.73;19.95;;;-0.10;99.90;;;;;;5021710;28;20033;-75
2023/12/20 02:33:01;;;;;;;12.60;11.88;;;-0.20;99.90;;;;;;5032652;28;20026;-75
2023/12/20 02:35:26;;;;;;;0.93;0.90;;;-0.20;99.90;;;;;;5020795;28;20022;-75
2023/12/20 02:37:52;;;;;;;20.67;19.23;;;-0.20;99.90;;;;;;5020857;28;20241;-75
2023/12/20 02:40:18;;;;;;;23.95;22.40;;;-0.20;99.90;;;;;;5021135;28;20089;-75
2023/12/20 02:42:44;;;;;;;2.10;1.90;;;-0.30;99.90;;;;;;5021705;28;20021;-75
2023/12/20 02:45:09;;;;;;;17.92;17.17;;;-0.30;99.90;;;;;;5023331;28;20033;-75
2023/12/20 02:47:35;;;;;;;0.85;0.85;;;-0.20;99.90;;;;;;5028069;28;20101;-75
2023/12/20 02:50:01;;;;;;;0.90;0.90;;;-0.20;99.90;;;;;;5033722;28;20021;-75
2023/12/20 02:52:28;;;;;;;15.25;13.18;;;-0.20;99.90;;;;;;5030207;28;20029;-74
2023/12/20 02:54:54;;;;;;;1.00;1.00;;;-0.30;99.90;;;;;;5020863;28;20041;-75
2023/12/20 02:57:20;;;;;;;1.20;1.20;;;-0.30;99.90;;;;;;5019670;28;20048;-77
2023/12/20 02:59:46;;;;;;;2.10;2.05;;;-0.40;99.90;;;;;;5020660;28;20018;-75
2023/12/20 03:02:11;;;;;;;26.77;25.60;;;-0.50;99.90;;;;;;5020612;28;20557;-75
2023/12/20 03:04:37;;;;;;;9.68;9.05;;;-1.40;99.90;;;;;;5020168;28;20017;-75
2023/12/20 03:07:03;;;;;;;1.17;1.17;;;-0.50;99.90;;;;;;5019833;28;20057;-74
2023/12/20 03:09:30;;;;;;;2.13;2.05;;;-0.60;99.90;;;;;;5021054;28;20053;-74
2023/12/20 03:11:56;;;;;;;14.23;13.27;;;-0.70;99.90;;;;;;5019001;28;20041;-74
2023/12/20 03:14:22;;;;;;;38.50;35.67;;;-0.70;99.90;;;;;;5022182;28;20121;-75
2023/12/20 03:16:50;;;;;;;0.20;0.20;;;-0.80;99.90;;;;;;5021240;28;20503;-74
2023/12/20 03:19:16;;;;;;;35.47;19.63;;;-0.80;99.90;;;;;;5025513;28;20025;-75
2023/12/20 03:21:42;;;;;;;14.13;13.00;;;-0.80;99.90;;;;;;5028287;28;20040;-74
2023/12/20 03:24:08;;;;;;;1.50;1.50;;;-0.80;99.90;;;;;;5028401;28;20025;-75
2023/12/20 03:26:33;;;;;;;0.57;0.57;;;-0.60;99.90;;;;;;5020327;28;20034;-74
2023/12/20 03:28:59;;;;;;;6.10;5.80;;;-0.80;99.90;;;;;;5018314;28;20032;-75
2023/12/20 03:31:25;;;;;;;9.27;8.88;;;-0.80;99.90;;;;;;5019952;28;20033;-75
2023/12/20 03:33:53;;;;;;;0.33;0.33;;;-0.80;99.90;;;;;;5019922;28;20120;-76
2023/12/20 03:36:19;;;;;;;2.23;2.13;;;-0.80;99.90;;;;;;5018682;28;20028;-75
2023/12/20 03:38:45;;;;;;;7.53;7.03;;;-0.80;99.90;;;;;;5019589;28;20191;-74
2023/12/20 03:41:13;;;;;;;10.00;9.40;;;-2.50;99.90;;;;;;5019789;28;20509;-74
2023/12/20 03:43:38;;;;;;;0.73;0.73;;;-0.80;99.90;;;;;;5019725;28;20772;-74
2023/12/20 03:46:04;;;;;;;0.30;0.30;;;-0.80;99.90;;;;;;5022176;28;20411;-75
2023/12/20 03:48:33;;;;;;;3.87;3.67;;;-0.80;99.90;;;;;;5019903;28;20035;-76
2023/12/20 03:50:59;;;;;;;3.80;3.67;;;-0.80;99.90;;;;;;5019957;28;20021;-75
2023/12/20 03:53:25;;;;;;;6.87;6.57;;;-0.80;99.90;;;;;;5018329;28;20053;-76
2023/12/20 03:55:50;;;;;;;0.77;0.77;;;-0.70;99.90;;;;;;5019211;28;20021;-75
2023/12/20 03:58:16;;;;;;;2.70;2.60;;;-0.70;99.90;;;;;;5018928;28;20029;-75
2023/12/20 04:00:42;;;;;;;9.53;9.13;;;-0.60;99.90;;;;;;5020679;28;20024;-74
2023/12/20 04:03:08;;;;;;;0.30;0.30;;;-0.60;99.90;;;;;;5019437;28;20033;-75
2023/12/20 04:05:34;;;;;;;2.60;2.47;;;-0.60;99.90;;;;;;5019357;28;20181;-74
2023/12/20 04:08:01;;;;;;;0.10;0.10;;;-0.60;99.90;;;;;;5019039;28;20042;-76
2023/12/20 04:10:27;;;;;;;0.20;0.20;;;-0.60;99.90;;;;;;5028424;28;20017;-78
2023/12/20 04:12:54;;;;;;;0.20;0.20;;;-0.60;99.90;;;;;;5019044;28;20033;-75
2023/12/20 04:15:20;;;;;;;8.43;7.83;;;-0.60;99.90;;;;;;5019592;28;20647;-75
2023/12/20 04:17:46;;;;;;;0.30;0.30;;;-0.60;99.90;;;;;;5018828;28;20059;-74
2023/12/20 04:20:12;;;;;;;3.20;3.10;;;-0.50;99.90;;;;;;5019148;28;20044;-74
2023/12/20 04:22:38;;;;;;;0.23;0.23;;;-0.50;99.90;;;;;;5017598;28;20256;-74
2023/12/20 04:25:04;;;;;;;6.10;5.83;;;-0.50;99.90;;;;;;5020094;28;20659;-74
2023/12/20 04:27:29;;;;;;;8.03;7.73;;;-0.50;99.90;;;;;;5019114;28;20023;-75
2023/12/20 04:29:55;;;;;;;7.27;6.97;;;-0.50;99.90;;;;;;5019248;28;20025;-74
2023/12/20 04:32:21;;;;;;;0.20;0.20;;;-0.50;99.90;;;;;;5018081;28;20021;-74
2023/12/20 04:34:47;;;;;;;0.17;0.17;;;-0.50;99.90;;;;;;5019156;28;20021;-75
2023/12/20 04:37:13;;;;;;;0.97;0.97;;;-0.50;99.90;;;;;;5020250;28;20055;-75
2023/12/20 04:39:39;;;;;;;0.20;0.20;;;-0.50;99.90;;;;;;5018857;28;20617;-75
2023/12/20 04:42:08;;;;;;;0.17;0.17;;;-0.60;99.90;;;;;;5019314;28;20044;-75
2023/12/20 04:44:34;;;;;;;3.43;3.27;;;-0.60;99.90;;;;;;5018657;28;20025;-74
2023/12/20 04:47:00;;;;;;;0.20;0.20;;;-0.60;99.90;;;;;;5018794;28;20013;-74
2023/12/20 04:49:26;;;;;;;6.13;3.40;;;-0.60;99.90;;;;;;5019778;28;20033;-74
2023/12/20 04:51:52;;;;;;;15.40;14.77;;;-0.60;99.90;;;;;;5030000;28;20029;-75
2023/12/20 04:54:18;;;;;;;1.87;1.80;;;-0.60;99.90;;;;;;5028667;28;20030;-76
2023/12/20 04:56:44;;;;;;;1.43;1.40;;;-0.70;99.90;;;;;;5021803;28;20092;-75
2023/12/20 04:59:10;;;;;;;2.05;1.98;;;-0.70;99.90;;;;;;5023157;28;20017;-75
2023/12/20 05:01:36;;;;;;;0.90;0.90;;;-0.80;99.90;;;;;;5022796;28;20041;-75
2023/12/20 05:04:01;;;;;;;0.17;0.17;;;-0.90;99.90;;;;;;5024731;28;20057;-75
2023/12/20 05:06:30;;;;;;;9.83;9.23;;;-0.90;99.90;;;;;;5025238;28;20049;-79
2023/12/20 05:08:55;;;;;;;0.20;0.20;;;-0.60;99.90;;;;;;5019908;28;20112;-74
2023/12/20 05:11:21;;;;;;;6.50;6.27;;;-0.80;99.90;;;;;;5018914;28;20029;-74
2023/12/20 05:13:47;;;;;;;0.10;0.10;;;-0.80;99.90;;;;;;5018964;28;20061;-73
2023/12/20 05:16:14;;;;;;;2.57;2.47;;;-0.90;99.90;;;;;;5017145;28;20741;-75
2023/12/20 05:18:40;;;;;;;0.10;0.10;;;-0.90;99.90;;;;;;5018438;28;20026;-74
2023/12/20 05:21:07;;;;;;;5.57;5.30;;;-0.90;99.90;;;;;;5018635;28;20083;-77
2023/12/20 05:23:33;;;;;;;0.40;0.40;;;-0.80;99.90;;;;;;5022361;28;20018;-76
2023/12/20 05:25:59;;;;;;;1.97;1.90;;;-0.80;99.90;;;;;;5026940;28;20043;-75
2023/12/20 05:28:25;;;;;;;1.60;1.60;;;-0.70;99.90;;;;;;5027362;28;20040;-74
2023/12/20 05:30:51;;;;;;;0.63;0.63;;;-0.70;99.90;;;;;;5027132;28;20079;-76
2023/12/20 05:33:17;;;;;;;2.73;2.63;;;-0.70;99.90;;;;;;5029370;28;20132;-74
2023/12/20 05:35:43;;;;;;;1.50;1.47;;;-0.70;99.90;;;;;;5029960;28;20018;-75
2023/12/20 05:38:09;;;;;;;0.53;0.53;;;-0.70;99.90;;;;;;5028075;28;20064;-74
2023/12/20 05:40:35;;;;;;;0.37;0.37;;;-0.70;99.90;;;;;;5023664;28;20729;-74
2023/12/20 05:43:01;;;;;;;0.20;0.20;;;-0.70;99.90;;;;;;5022274;28;20022;-79
2023/12/20 05:45:26;;;;;;;0.20;0.20;;;-0.70;99.90;;;;;;5018295;28;20076;-74
2023/12/20 05:47:52;;;;;;;0.43;0.43;;;-0.60;99.90;;;;;;5026238;28;20048;-74
2023/12/20 05:50:18;;;;;;;0.47;0.47;;;-0.70;99.90;;;;;;5036996;28;20025;-75
2023/12/20 05:52:44;;;;;;;5.60;5.40;;;-0.70;99.90;;;;;;5022285;28;20038;-74
2023/12/20 05:55:10;;;;;;;2.20;2.10;;;-0.70;99.90;;;;;;5021440;28;20536;-73
2023/12/20 05:57:35;;;;;;;0.80;0.80;;;-0.70;99.90;;;;;;5021219;28;20049;-74
2023/12/20 06:00:01;;;;;;;0.40;0.40;;;-0.70;99.90;;;;;;5020162;28;20086;-74
2023/12/20 06:02:27;;;;;;;0.20;0.20;;;-0.70;99.90;;;;;;5021191;28;20165;-74
2023/12/20 06:04:53;;;;;;;0.87;0.87;;;-0.80;99.90;;;;;;5021115;28;20503;-74
2023/12/20 06:07:19;;;;;;;6.20;5.90;;;-0.80;99.90;;;;;;5019419;28;20064;-75
2023/12/20 06:09:45;;;;;;;2.10;2.00;;;-0.80;99.90;;;;;;5029387;28;20028;-75
2023/12/20 06:12:11;;;;;;;0.30;0.30;;;-0.80;99.90;;;;;;5024890;28;20022;-74
2023/12/20 06:14:36;;;;;;;0.47;0.47;;;-0.90;99.90;;;;;;5024655;28;20558;-74
2023/12/20 06:17:03;;;;;;;0.60;0.60;;;-1.00;99.90;;;;;;5021989;28;20302;-80
2023/12/20 06:19:28;;;;;;;1.17;1.13;;;-0.90;99.90;;;;;;5020398;28;20029;-74
2023/12/20 06:21:54;;;;;;;0.10;0.10;;;-0.80;99.90;;;;;;5019839;28;20030;-76
2023/12/20 06:24:21;;;;;;;0.20;0.20;;;-0.90;99.90;;;;;;5021444;28;20017;-74
2023/12/20 06:26:47;;;;;;;0.20;0.20;;;-0.90;99.90;;;;;;5020006;28;20037;-75
2023/12/20 06:29:16;;;;;;;3.90;3.73;;;0.60;99.90;;;;;;5021421;28;20654;-74
2023/12/20 06:31:42;;;;;;;0.20;0.20;;;-0.80;99.90;;;;;;5020754;28;20563;-74
2023/12/20 06:34:08;;;;;;;2.10;2.00;;;-0.70;99.90;;;;;;5020704;28;20041;-74
2023/12/20 06:36:33;;;;;;;0.30;0.30;;;-0.70;99.90;;;;;;5028742;28;20022;-74
2023/12/20 06:38:59;;;;;;;0.20;0.20;;;-0.70;99.90;;;;;;5028765;28;20116;-74
2023/12/20 06:41:25;;;;;;;4.53;4.43;;;-0.80;99.90;;;;;;5021605;28;20527;-74
2023/12/20 06:43:53;;;;;;;0.20;0.20;;;-0.80;99.90;;;;;;5022249;28;20696;-75
2023/12/20 06:46:20;;;;;;;9.73;9.20;;;-0.80;99.90;;;;;;5032189;28;20033;-76
2023/12/20 06:48:46;;;;;;;0.20;0.20;;;-0.70;99.90;;;;;;5030741;28;20059;-76
2023/12/20 06:51:17;;;;;;;17.70;16.83;;;-0.60;99.90;;;;;;5026295;28;20499;-74
2023/12/20 06:53:43;;;;;;;0.20;0.20;;;-0.50;99.90;;;;;;5025026;28;20037;-75
2023/12/20 06:56:12;;;;;;;0.83;0.83;;;-0.50;99.90;;;;;;5025720;28;20031;-75
2023/12/20 06:58:38;;;;;;;0.53;0.53;;;-0.50;99.90;;;;;;5019292;28;20030;-75
2023/12/20 07:01:04;;;;;;;1.90;1.80;;;-0.40;99.90;;;;;;5026924;28;20043;-80
2023/12/20 07:03:30;;;;;;;0.10;0.10;;;-0.40;99.90;;;;;;5046374;28;20013;-76
2023/12/20 07:05:56;;;;;;;0.20;0.20;;;-0.40;99.90;;;;;;5050536;28;20033;-75
2023/12/20 07:08:21;;;;;;;2.30;2.23;;;-0.40;99.90;;;;;;5047265;28;20076;-76
2023/12/20 07:10:48;;;;;;;5.50;5.30;;;-0.50;99.90;;;;;;5046728;28;20037;-76
2023/12/20 07:13:14;;;;;;;8.67;8.37;;;-0.40;99.90;;;;;;5034225;28;20040;-76
2023/12/20 07:15:40;;;;;;;0.20;0.20;;;-0.40;99.90;;;;;;5024657;28;20030;-75
2023/12/20 07:18:06;;;;;;;5.95;5.70;;;-0.40;99.90;;;;;;5022110;28;20038;-75
2023/12/20 07:20:32;;;;;;;3.33;3.07;;;-0.40;99.90;;;;;;5024598;28;20013;-74
2023/12/20 07:22:59;;;;;;;2.10;2.00;;;-0.30;99.90;;;;;;5027256;28;20026;-75
2023/12/20 07:25:25;;;;;;;1.90;1.90;;;-0.30;99.90;;;;;;5022331;28;20021;-75
2023/12/20 07:27:50;;;;;;;1.10;1.10;;;-0.20;99.90;;;;;;5027748;28;20026;-74
2023/12/20 07:30:17;;;;;;;0.70;0.70;;;-0.30;99.90;;;;;;5023025;28;20028;-74
2023/12/20 07:32:42;;;;;;;0.77;0.77;;;-0.30;99.90;;;;;;5030729;28;20033;-74
2023/12/20 07:35:08;;;;;;;45.53;43.13;;;-0.30;99.90;;;;;;5022943;28;20025;-74
2023/12/20 07:37:34;;;;;;;0.77;0.77;;;-0.40;99.90;;;;;;5026706;28;20025;-74
2023/12/20 07:40:00;;;;;;;5.80;5.50;;;1.40;99.90;;;;;;5024621;28;20032;-74
2023/12/20 07:42:28;;;;;;;1.90;1.80;;;-0.40;99.90;;;;;;5026540;28;20010;-74
2023/12/20 07:44:53;;;;;;;41.20;36.60;;;-0.40;99.90;;;;;;5030831;28;20056;-74
2023/12/20 07:47:22;;;;;;;4.27;4.10;;;-0.50;99.90;;;;;;5030413;28;20034;-75
2023/12/20 07:49:57;;;;;;;4.77;4.57;;;-0.50;99.90;;;;;;5043038;28;20093;-73
2023/12/20 07:52:23;;;;;;;0.50;0.50;;;-0.40;99.90;;;;;;5030676;28;20025;-74
2023/12/20 07:54:49;;;;;;;5.30;5.00;;;-0.40;99.90;;;;;;5034559;28;20073;-74
2023/12/20 07:57:14;;;;;;;6.10;5.80;;;-0.30;99.90;;;;;;5048788;28;20532;-74
2023/12/20 07:59:40;;;;;;;0.30;0.30;;;-0.30;99.90;;;;;;5034756;28;20023;-74
2023/12/20 08:02:06;;;;;;;3.37;3.27;;;-0.20;99.90;;;;;;5025319;28;20037;-74
2023/12/20 08:04:32;;;;;;;3.83;2.73;;;-0.20;99.90;;;;;;5026764;28;20017;-75
2023/12/20 08:06:58;;;;;;;0.20;0.20;;;-0.10;99.90;;;;;;5026291;28;20029;-73
2023/12/20 08:09:24;;;;;;;1.20;1.20;;;-0.10;99.90;;;;;;5021788;28;20054;-74
2023/12/20 08:11:51;;;;;;;12.87;11.80;;;-0.10;99.90;;;;;;5029548;28;20567;-74
2023/12/20 08:14:17;;;;;;;7.57;7.20;;;-0.10;99.90;;;;;;5029263;28;20049;-73
2023/12/20 08:16:43;;;;;;;5.47;5.15;;;-0.10;99.90;;;;;;5033108;28;20019;-75
2023/12/20 08:19:09;;;;;;;0.10;0.10;;;-0.10;99.90;;;;;;5030845;28;20025;-72
2023/12/20 08:21:35;;;;;;;7.63;7.30;;;-0.10;99.90;;;;;;5028876;28;20078;-73
2023/12/20 08:24:00;;;;;;;2.22;2.15;;;-0.10;99.90;;;;;;5037193;28;20460;-73
2023/12/20 08:26:34;;;;;;;0.88;0.88;;;-0.10;99.90;;;;;;5030711;28;20028;-73
2023/12/20 08:29:01;;;;;;;3.40;3.25;;;-1.70;99.90;;;;;;5029039;28;20053;-73
2023/12/20 08:31:27;;;;;;;0.95;0.95;;;0.00;99.90;;;;;;5033951;28;20014;-73
2023/12/20 08:33:54;;;;;;;0.30;0.30;;;-0.10;99.90;;;;;;5034303;28;20029;-74
2023/12/20 08:36:22;;;;;;;0.95;0.95;;;0.00;99.90;;;;;;5029026;28;20060;-74
2023/12/20 08:38:50;;;;;;;0.20;0.20;;;0.00;99.90;;;;;;5028882;28;20018;-77
2023/12/20 08:41:17;;;;;;;8.65;5.43;;;0.10;99.90;;;;;;5038214;28;20056;-75
2023/12/20 08:43:46;;;;;;;0.43;0.43;;;0.10;99.90;;;;;;5024733;28;20735;-75
2023/12/20 08:46:13;;;;;;;4.78;4.57;;;0.10;99.90;;;;;;5024811;28;20624;-75
2023/12/20 08:48:42;;;;;;;0.13;0.13;;;0.00;99.90;;;;;;5021944;28;20045;-75
2023/12/20 08:51:08;;;;;;;0.82;0.82;;;0.20;99.90;;;;;;5021663;28;20049;-75
2023/12/20 08:53:37;;;;;;;0.43;0.43;;;0.20;99.90;;;;;;5024926;28;20122;-76
2023/12/20 08:56:03;;;;;;;2.35;2.20;;;0.30;99.90;;;;;;5031622;28;20022;-75
2023/12/20 08:58:29;;;;;;;6.75;6.43;;;0.30;99.90;;;;;;5036042;28;20220;-77
2023/12/20 09:00:55;;;;;;;0.95;0.95;;;0.30;99.90;;;;;;5030770;28;20684;-75
2023/12/20 09:03:21;;;;;;;5.68;5.38;;;0.30;99.90;;;;;;5029632;28;20100;-75
2023/12/20 09:05:46;;;;;;;8.10;7.82;;;0.30;99.90;;;;;;5031263;28;20079;-78
2023/12/20 09:08:33;;;;;;;0.15;0.15;;;0.40;99.90;;;;;;5044719;28;20052;-75
2023/12/20 09:10:58;;;;;;;0.10;0.10;;;0.40;99.90;;;;;;5030069;28;20128;-78
2023/12/20 09:13:28;;;;;;;8.02;7.68;;;0.40;99.90;;;;;;5031396;28;20064;-75
2023/12/20 09:15:58;;;;;;;0.20;0.20;;;0.40;99.90;;;;;;5032505;28;20017;-74
2023/12/20 09:18:24;;;;;;;0.10;0.10;;;3.20;99.90;;;;;;5029036;28;20033;-75
2023/12/20 09:20:50;;;;;;;3.40;3.30;;;2.80;99.90;;;;;;5036390;28;20026;-80
2023/12/20 09:23:16;;;;;;;0.30;0.30;;;2.50;99.90;;;;;;5123010;22;20033;-77
2023/12/20 09:25:42;;;;;;;7.45;7.22;;;2.30;99.90;;;;;;5066829;28;20066;-78
2023/12/20 09:28:10;;;;;;;14.57;13.93;;;2.00;99.90;;;;;;5073833;28;20017;-77
2023/12/20 09:30:39;;;;;;;11.00;10.57;;;1.80;99.90;;;;;;5071262;28;20037;-77
2023/12/20 09:33:07;;;;;;;3.95;3.80;;;1.80;99.90;;;;;;5075152;28;20076;-78
2023/12/20 09:35:41;;;;;;;10.10;9.65;;;1.70;99.90;;;;;;5055617;28;20021;-77
2023/12/20 09:38:12;;;;;;;0.30;0.30;;;1.70;99.90;;;;;;5066167;28;20013;-77
2023/12/20 09:40:56;;;;;;;31.17;18.95;;;1.90;99.90;;;;;;5056703;28;20037;-77
2023/12/20 09:43:31;;;;;;;3.72;3.42;;;1.90;99.90;;;;;;5042470;28;20029;-75
2023/12/20 09:46:00;;;;;;;0.50;0.50;;;2.00;99.90;;;;;;5041978;28;20045;-75
2023/12/20 09:48:27;;;;;;;12.55;11.93;;;2.00;99.90;;;;;;5044921;28;20017;-78
2023/12/20 09:50:54;;;;;;;2.63;2.47;;;2.00;99.90;;;;;;5044489;28;20767;-75
2023/12/20 09:53:23;;;;;;;0.10;0.10;;;2.10;99.90;;;;;;5051400;28;20025;-77
2023/12/20 09:55:50;;;;;;;1.35;1.35;;;2.20;99.90;;;;;;5055516;28;20014;-75
2023/12/20 09:58:15;;;;;;;0.50;0.50;;;2.40;99.90;;;;;;5058752;28;20099;-76
2023/12/20 10:00:42;;;;;;;4.15;3.95;;;2.60;99.90;;;;;;5057783;28;20021;-75
2023/12/20 10:03:09;;;;;;;3.88;3.72;;;2.80;99.90;;;;;;5035865;28;20022;-76
2023/12/20 10:05:43;;;;;;;0.10;0.10;;;3.10;99.90;;;;;;5041397;28;20017;-75
2023/12/20 10:08:13;;;;;;;5.13;4.93;;;3.30;99.90;;;;;;5061247;28;20024;-76
2023/12/20 10:10:39;;;;;;;35.08;24.95;;;3.50;99.90;;;;;;5064595;28;20017;-75
2023/12/20 10:13:08;;;;;;;0.95;0.93;;;3.60;99.90;;;;;;5054941;28;20059;-77
2023/12/20 10:15:38;;;;;;;11.10;9.95;;;3.70;99.90;;;;;;5058360;28;20020;-79
2023/12/20 10:18:04;;;;;;;14.73;13.88;;;3.90;99.90;;;;;;5071589;28;20042;-76
2023/12/20 10:20:37;;;;;;;39.67;35.38;;;4.00;99.90;;;;;;5048840;28;20021;-76
2023/12/20 10:23:13;;;;;;;0.47;0.47;;;4.20;99.90;;;;;;5051468;28;20069;-76
2023/12/20 10:26:02;;;;;;;0.85;0.85;;;4.30;99.90;;;;;;5054663;28;20040;-76
2023/12/20 10:28:40;;;;;;;21.90;21.02;;;1.60;99.90;;;;;;5053016;28;20021;-77
2023/12/20 10:31:31;;;;;;;0.65;0.65;;;4.80;99.90;;;;;;5027749;28;20036;-76
2023/12/20 10:34:01;;;;;;;8.63;4.35;;;3.70;99.90;;;;;;5047244;28;20037;-76
2023/12/20 10:36:36;;;;;;;20.77;19.65;;;4.40;99.90;;;;;;5048110;28;20704;-76
2023/12/20 10:39:02;;;;;;;0.90;0.90;;;4.50;99.90;;;;;;5051397;28;20033;-76
2023/12/20 10:44:17;;;;;;;1.17;1.17;;;4.20;99.90;;;;;;5051509;28;20039;-75
2023/12/20 10:46:57;;;;;;;7.60;7.10;;;4.20;99.90;;;;;;5052647;28;20100;-78
2023/12/20 10:49:25;;;;;;;1.88;1.80;;;4.30;99.90;;;;;;5042774;28;20028;-75
2023/12/20 10:51:54;;;;;;;14.65;13.90;;;4.40;99.90;;;;;;5042674;28;20127;-75
2023/12/20 10:54:20;;;;;;;1.13;1.13;;;;;;;;;;5044365;28;20209;-77
2023/12/20 10:56:47;;;;;;;0.50;0.50;;;4.50;99.90;;;;;;5043586;28;20097;-75
2023/12/20 10:59:18;;;;;;;17.33;15.93;;;4.50;99.90;;;;;;5045542;28;20040;-75
2023/12/20 11:01:44;;;;;;;5.53;5.25;;;4.50;99.90;;;;;;5041438;28;20013;-75
2023/12/20 11:04:22;;;;;;;2.15;2.05;;;4.50;99.90;;;;;;5041559;28;20024;-75
2023/12/20 11:07:11;;;;;;;18.98;17.83;;;4.40;99.90;;;;;;5041449;28;20086;-76
2023/12/20 11:10:02;;;;;;;0.10;0.10;;;4.20;99.90;;;;;;5040915;28;20682;-76
2023/12/20 11:12:51;;;;;;;8.68;8.30;;;4.20;99.90;;;;;;5042659;28;20051;-75
2023/12/20 11:15:21;;;;;;;61.08;58.40;;;4.20;99.90;;;;;;5046969;28;20060;-75
2023/12/20 11:17:54;;;;;;;56.30;45.92;;;4.00;99.90;;;;;;5051107;28;20009;-75
2023/12/20 11:20:36;;;;;;;17.45;16.63;;;3.90;99.90;;;;;;5041971;28;20666;-74
2023/12/20 11:23:02;;;;;;;33.95;29.17;;;4.20;99.90;;;;;;5041227;28;20049;-74
2023/12/20 11:25:28;;;;;;;8.80;8.50;;;4.00;99.90;;;;;;5042106;28;20032;-76
2023/12/20 11:28:10;;;;;;;0.15;0.15;;;4.10;99.90;;;;;;5041786;28;20022;-74
2023/12/20 11:30:53;;;;;;;0.20;0.20;;;4.00;99.90;;;;;;5047967;28;20100;-74
2023/12/20 11:33:25;;;;;;;34.05;32.60;;;3.90;99.90;;;;;;5042906;28;20472;-75
2023/12/20 11:35:51;;;;;;;11.20;10.73;;;4.10;99.90;;;;;;5041437;28;20013;-75
2023/12/20 11:38:21;;;;;;;50.88;48.53;;;4.00;99.90;;;;;;5041503;28;20027;-75
2023/12/20 11:40:50;;;;;;;20.58;19.02;;;4.10;99.90;;;;;;5041174;28;20022;-74
2023/12/20 11:43:38;;;;;;;0.90;0.90;;;4.10;99.90;;;;;;5042607;28;20569;-74
2023/12/20 11:46:12;;;;;;;18.38;8.63;;;4.20;99.90;;;;;;5043230;28;20029;-74
2023/12/20 11:48:40;;;;;;;2.25;2.15;;;4.20;99.90;;;;;;5048845;28;20017;-75
2023/12/20 11:51:13;;;;;;;7.03;6.68;;;4.20;99.90;;;;;;5042358;28;20580;-74
2023/12/20 11:53:42;;;;;;;5.53;5.20;;;4.30;99.90;;;;;;5042465;28;20065;-74
2023/12/20 11:56:08;;;;;;;41.53;30.90;;;6.20;99.90;;;;;;5041783;28;20271;-75
2023/12/20 11:58:35;;;;;;;0.20;0.20;;;4.60;99.90;;;;;;5040163;28;20024;-74
2023/12/20 12:01:04;;;;;;;5.78;5.18;;;4.80;99.90;;;;;;5042707;28;20698;-75
2023/12/20 12:03:30;;;;;;;23.73;22.75;;;5.00;99.90;;;;;;5040313;28;20052;-74
2023/12/20 12:06:05;;;;;;;1.05;1.05;;;5.10;99.90;;;;;;5041028;28;20223;-75
2023/12/20 12:08:31;;;;;;;0.50;0.50;;;5.30;99.90;;;;;;5042472;28;20044;-74
2023/12/20 12:10:57;;;;;;;20.80;19.95;;;5.50;99.90;;;;;;5043627;28;20021;-74
2023/12/20 12:13:27;;;;;;;3.42;3.22;;;5.70;99.90;;;;;;5046357;28;20693;-75
2023/12/20 12:15:54;;;;;;;40.17;38.63;;;5.80;99.90;;;;;;5045583;28;20083;-74
2023/12/20 12:18:20;;;;;;;0.75;0.75;;;6.00;99.90;;;;;;5047350;28;20079;-76
2023/12/20 12:20:46;;;;;;;11.38;10.25;;;6.10;99.90;;;;;;5043176;28;20021;-74
2023/12/20 12:23:11;;;;;;;4.18;3.80;;;6.20;99.90;;;;;;5040886;28;20041;-75
2023/12/20 12:25:37;;;;;;;9.40;8.98;;;6.30;99.90;;;;;;5049912;28;20055;-76
2023/12/20 12:28:03;;;;;;;8.90;6.35;;;6.50;99.90;;;;;;5039583;28;20190;-74
2023/12/20 12:30:29;;;;;;;47.35;44.50;;;6.70;99.90;;;;;;5038978;28;20036;-74
2023/12/20 12:32:56;;;;;;;0.40;0.40;;;6.80;99.90;;;;;;5039256;28;20029;-74
2023/12/20 12:35:22;;;;;;;0.77;0.77;;;7.10;99.90;;;;;;5040204;28;20035;-75
2023/12/20 12:37:48;;;;;;;0.63;0.63;;;7.30;99.90;;;;;;5040077;28;20055;-75
2023/12/20 12:40:16;;;;;;;26.20;25.17;;;7.40;99.90;;;;;;5039492;28;20691;-75
2023/12/20 12:42:44;;;;;;;6.30;6.00;;;7.40;99.90;;;;;;5040527;28;20032;-74
2023/12/20 12:45:11;;;;;;;1.60;1.60;;;7.60;99.90;;;;;;5039135;28;20021;-75
2023/12/20 12:47:39;;;;;;;1.63;1.52;;;7.80;99.90;;;;;;5038635;28;20104;-74
2023/12/20 12:50:11;;;;;;;1.58;1.52;;;7.90;99.90;;;;;;5040191;28;20090;-74
2023/12/20 12:52:40;;;;;;;3.03;2.83;;;8.00;99.90;;;;;;5043606;28;20078;-75